Time;durP1;ratioP1;P1;durP2;ratioP2;P2;SDS_P1;SDS_P2;PMS_P1;PMS_P2;Temp;Humidity;BMP_temperature;BMP_pressure;BME280_temperature;BME280_humidity;BME280_pressure;Samples;Min_cycle;Max_cycle;Signal;HPM_P1;HPM_P2
2022/07/08 00:02:11;;;;;;;;;;;16.40;98.70;;;;;;5022201;28;20391;-82
2022/07/08 00:04:37;;;;;;;;;;;16.40;98.70;;;;;;5023787;28;19920;-82
2022/07/08 00:07:03;;;;;;;;;;;16.40;98.80;;;;;;5023339;28;19919;-82
2022/07/08 00:09:29;;;;;;;;;;;16.30;98.80;;;;;;5003380;28;19928;-81
2022/07/08 00:11:56;;;;;;;;;;;16.30;98.80;;;;;;5019996;28;20340;-81
2022/07/08 00:14:23;;;;;;;;;;;16.30;98.90;;;;;;5022402;28;19919;-81
2022/07/08 00:16:49;;;;;;;;;;;16.20;99.00;;;;;;5023142;28;19940;-81
2022/07/08 00:19:16;;;;;;;;;;;16.30;99.00;;;;;;5021131;28;19912;-81
2022/07/08 00:21:44;;;;;;;;;;;16.30;99.10;;;;;;5019901;28;20351;-81
2022/07/08 00:24:10;;;;;;;;;;;16.30;99.10;;;;;;5022342;28;19913;-81
2022/07/08 00:26:38;;;;;;;;;;;16.30;99.20;;;;;;5022526;28;19921;-80
2022/07/08 00:29:04;;;;;;;;;;;16.20;99.20;;;;;;5022375;28;19912;-80
2022/07/08 00:31:31;;;;;;;;;;;16.20;99.30;;;;;;5017553;28;19913;-80
2022/07/08 00:33:57;;;;;;;;;;;16.20;99.30;;;;;;5022375;28;19919;-76
2022/07/08 00:36:24;;;;;;;;;;;16.10;99.30;;;;;;5020263;28;19916;-75
2022/07/08 00:38:50;;;;;;;;;;;16.10;99.50;;;;;;5003897;28;19920;-76
2022/07/08 00:41:16;;;;;;;;;;;16.00;99.60;;;;;;5016624;28;19924;-76
2022/07/08 00:43:43;;;;;;;;;;;15.90;99.70;;;;;;5022044;28;20379;-75
2022/07/08 00:46:10;;;;;;;;;;;15.80;99.80;;;;;;5024049;28;19920;-76
2022/07/08 00:48:36;;;;;;;;;;;15.80;99.80;;;;;;5018906;28;20865;-76
2022/07/08 00:51:05;;;;;;;;;;;15.80;99.80;;;;;;4982329;28;19921;-75
2022/07/08 00:53:32;;;;;;;;;;;15.80;99.80;;;;;;5020833;28;19913;-75
2022/07/08 00:55:59;;;;;;;;;;;15.80;99.90;;;;;;5021345;28;20683;-76
2022/07/08 00:58:25;;;;;;;;;;;15.80;99.90;;;;;;5021225;28;20484;-80
2022/07/08 01:00:52;;;;;;;;;;;15.80;99.90;;;;;;5015072;28;19917;-80
2022/07/08 01:03:18;;;;;;;;;;;15.70;99.90;;;;;;5022011;28;19912;-80
2022/07/08 01:05:45;;;;;;;;;;;15.70;99.90;;;;;;5007250;28;19916;-80
2022/07/08 01:08:11;;;;;;;;;;;15.70;99.90;;;;;;5022356;28;20275;-80
2022/07/08 01:10:38;;;;;;;;;;;15.70;99.90;;;;;;5016124;28;19921;-80
2022/07/08 01:13:04;;;;;;;;;;;15.70;99.90;;;;;;5007206;28;20288;-80
2022/07/08 01:15:31;;;;;;;;;;;15.70;99.90;;;;;;5024988;28;19908;-80
2022/07/08 01:17:57;;;;;;;;;;;15.60;99.90;;;;;;5023451;28;19904;-80
2022/07/08 01:20:23;;;;;;;;;;;15.60;99.90;;;;;;5017724;28;19916;-80
2022/07/08 01:22:49;;;;;;;;;;;15.60;99.90;;;;;;5021735;28;19908;-80
2022/07/08 01:25:16;;;;;;;;;;;15.60;99.90;;;;;;5022075;28;20343;-81
2022/07/08 01:27:42;;;;;;;;;;;15.60;99.90;;;;;;5008630;28;19920;-80
2022/07/08 01:30:08;;;;;;;;;;;15.60;99.90;;;;;;5018927;28;19931;-82
2022/07/08 01:32:36;;;;;;;;;;;15.60;99.90;;;;;;5020144;28;19913;-81
2022/07/08 01:35:03;;;;;;;;;;;15.50;99.90;;;;;;5020022;28;19912;-82
2022/07/08 01:37:29;;;;;;;;;;;15.40;99.90;;;;;;5007560;28;19935;-81
2022/07/08 01:39:55;;;;;;;;;;;15.40;99.90;;;;;;5006982;28;19909;-81
2022/07/08 01:42:22;;;;;;;;;;;15.30;99.90;;;;;;5007002;28;19920;-81
2022/07/08 01:44:48;;;;;;;;;;;15.30;99.90;;;;;;5022584;28;20411;-82
2022/07/08 01:47:14;;;;;;;;;;;15.20;99.90;;;;;;5022665;28;19943;-82
2022/07/08 01:49:40;;;;;;;;;;;15.10;99.90;;;;;;5005413;28;19928;-80
2022/07/08 01:52:07;;;;;;;;;;;15.10;99.90;;;;;;5008304;28;19948;-81
2022/07/08 01:54:33;;;;;;;;;;;15.10;99.90;;;;;;5027515;28;19924;-82
2022/07/08 01:57:14;;;;;;;;;;;15.20;99.90;;;;;;5023326;28;19920;-82
2022/07/08 01:59:47;;;;;;;;;;;15.20;99.90;;;;;;5021866;28;19917;-82
2022/07/08 02:02:14;;;;;;;;;;;15.30;99.90;;;;;;5026372;28;19904;-82
2022/07/08 02:04:41;;;;;;;;;;;15.30;99.90;;;;;;5024882;28;19943;-82
2022/07/08 02:07:07;;;;;;;;;;;15.30;99.90;;;;;;5026061;28;19935;-83
2022/07/08 02:09:34;;;;;;;;;;;15.30;99.90;;;;;;5022731;28;19924;-82
2022/07/08 02:12:18;;;;;;;;;;;15.40;99.90;;;;;;5011766;28;20311;-81
2022/07/08 02:14:45;;;;;;;;;;;15.40;99.90;;;;;;5026145;28;19919;-81
2022/07/08 02:17:11;;;;;;;;;;;15.40;99.90;;;;;;5023650;28;19924;-82
2022/07/08 02:19:37;;;;;;;;;;;15.40;99.90;;;;;;5025243;28;19921;-80
2022/07/08 02:22:04;;;;;;;;;;;15.40;99.90;;;;;;5039605;28;19923;-80
2022/07/08 02:24:30;;;;;;;;;;;15.40;99.90;;;;;;5025138;28;19987;-76
2022/07/08 02:26:56;;;;;;;;;;;15.30;99.90;;;;;;5021691;28;19909;-77
2022/07/08 02:29:22;;;;;;;;;;;15.40;99.90;;;;;;5021133;28;20284;-76
2022/07/08 02:31:48;;;;;;;;;;;15.40;99.90;;;;;;5022634;28;20252;-77
2022/07/08 02:34:14;;;;;;;;;;;15.40;99.90;;;;;;5025101;28;20264;-76
2022/07/08 02:36:40;;;;;;;;;;;15.30;99.90;;;;;;5023430;28;19908;-76
2022/07/08 02:39:07;;;;;;;;;;;15.30;99.90;;;;;;5006158;28;20516;-76
2022/07/08 02:41:33;;;;;;;;;;;15.10;99.90;;;;;;5005598;28;19913;-76
2022/07/08 02:43:59;;;;;;;;;;;15.10;99.90;;;;;;5024694;28;19917;-76
2022/07/08 02:46:25;;;;;;;;;;;15.00;99.90;;;;;;5024522;28;21320;-76
2022/07/08 02:48:52;;;;;;;;;;;15.00;99.90;;;;;;5023134;28;19921;-76
2022/07/08 02:51:18;;;;;;;;;;;14.90;99.90;;;;;;5016857;28;19935;-76
2022/07/08 02:53:44;;;;;;;;;;;14.90;99.90;;;;;;5022048;28;19923;-76
2022/07/08 02:56:10;;;;;;;;;;;14.80;99.90;;;;;;5022248;28;19916;-76
2022/07/08 02:58:36;;;;;;;;;;;14.80;99.90;;;;;;5022470;28;20347;-77
2022/07/08 03:01:02;;;;;;;;;;;14.70;99.90;;;;;;5019163;28;20352;-76
2022/07/08 03:03:29;;;;;;;;;;;14.70;99.90;;;;;;5008731;28;19913;-76
2022/07/08 03:05:55;;;;;;;;;;;14.60;99.90;;;;;;5022646;28;19917;-76
2022/07/08 03:08:22;;;;;;;;;;;14.60;99.90;;;;;;5005654;28;19928;-76
2022/07/08 03:10:49;;;;;;;;;;;14.50;99.90;;;;;;5019033;28;20295;-80
2022/07/08 03:13:15;;;;;;;;;;;14.40;99.90;;;;;;5006501;28;19915;-80
2022/07/08 03:15:42;;;;;;;;;;;14.30;99.90;;;;;;5024024;28;19924;-80
2022/07/08 03:18:08;;;;;;;;;;;14.20;99.90;;;;;;5024446;28;19913;-76
2022/07/08 03:20:34;;;;;;;;;;;14.10;99.90;;;;;;4988694;28;19916;-76
2022/07/08 03:23:00;;;;;;;;;;;14.10;99.90;;;;;;4990053;28;19916;-76
2022/07/08 03:25:27;;;;;;;;;;;14.00;99.90;;;;;;5022756;28;19913;-77
2022/07/08 03:27:53;;;;;;;;;;;14.00;99.90;;;;;;5022116;28;19913;-76
2022/07/08 03:30:19;;;;;;;;;;;13.90;99.90;;;;;;5019188;28;19904;-76
2022/07/08 03:32:45;;;;;;;;;;;13.90;99.90;;;;;;5021801;28;19920;-76
2022/07/08 03:35:11;;;;;;;;;;;13.80;99.90;;;;;;5021585;28;19909;-76
2022/07/08 03:37:42;;;;;;;;;;;13.80;99.90;;;;;;5011067;28;19909;-76
2022/07/08 03:42:54;;;;;;;;;;;13.70;99.90;;;;;;5025216;28;20283;-76
2022/07/08 03:45:20;;;;;;;;;;;13.70;99.90;;;;;;5022709;28;19913;-76
2022/07/08 03:47:46;;;;;;;;;;;13.70;99.90;;;;;;5024834;28;19923;-76
2022/07/08 03:50:12;;;;;;;;;;;13.60;99.90;;;;;;5002185;28;20267;-76
2022/07/08 03:52:39;;;;;;;;;;;13.60;99.90;;;;;;5023737;28;19920;-76
2022/07/08 03:55:05;;;;;;;;;;;13.60;99.90;;;;;;5037672;28;19912;-76
2022/07/08 03:57:32;;;;;;;;;;;13.60;99.90;;;;;;5021197;28;19924;-76
2022/07/08 03:59:58;;;;;;;;;;;13.60;99.90;;;;;;5018772;28;19905;-77
2022/07/08 04:02:24;;;;;;;;;;;13.60;99.90;;;;;;4989390;28;19912;-76
2022/07/08 04:04:50;;;;;;;;;;;13.60;99.90;;;;;;5022081;28;19909;-76
2022/07/08 04:07:17;;;;;;;;;;;13.60;99.90;;;;;;5023371;28;19923;-76
2022/07/08 04:09:43;;;;;;;;;;;13.70;99.90;;;;;;5017572;28;19924;-76
2022/07/08 04:12:09;;;;;;;;;;;13.70;99.90;;;;;;5006695;28;19924;-80
2022/07/08 04:14:36;;;;;;;;;;;13.80;99.90;;;;;;5004977;28;19932;-80
2022/07/08 04:17:03;;;;;;;;;;;13.80;99.90;;;;;;5024018;28;19928;-81
2022/07/08 04:19:29;;;;;;;;;;;13.80;99.90;;;;;;5018833;28;19912;-80
2022/07/08 04:21:55;;;;;;;;;;;13.90;99.90;;;;;;5019872;28;19916;-81
2022/07/08 04:24:21;;;;;;;;;;;13.90;99.90;;;;;;5021636;28;19924;-80
2022/07/08 04:26:48;;;;;;;;;;;13.90;99.90;;;;;;5020946;28;19924;-80
2022/07/08 04:29:14;;;;;;;;;;;14.00;99.90;;;;;;5007439;28;19917;-80
2022/07/08 04:31:40;;;;;;;;;;;14.00;99.90;;;;;;5002089;28;19924;-81
2022/07/08 04:34:06;;;;;;;;;;;14.00;99.90;;;;;;5023400;28;19921;-80
2022/07/08 04:36:32;;;;;;;;;;;14.10;99.90;;;;;;5003892;28;19917;-81
2022/07/08 04:38:58;;;;;;;;;;;14.20;99.90;;;;;;5022231;28;20357;-81
2022/07/08 04:41:25;;;;;;;;;;;14.30;99.90;;;;;;5017510;28;20355;-80
2022/07/08 04:43:51;;;;;;;;;;;14.30;99.90;;;;;;5023798;28;19908;-80
2022/07/08 04:46:17;;;;;;;;;;;14.40;99.90;;;;;;4992165;28;19908;-80
2022/07/08 04:48:43;;;;;;;;;;;14.50;99.90;;;;;;5023847;28;19932;-80
2022/07/08 04:51:09;;;;;;;;;;;14.60;99.90;;;;;;4998428;28;19917;-76
2022/07/08 04:53:35;;;;;;;;;;;14.50;99.90;;;;;;5021457;28;19905;-76
2022/07/08 04:56:02;;;;;;;;;;;14.60;99.90;;;;;;5004713;28;19917;-76
2022/07/08 04:58:28;;;;;;;;;;;14.60;99.90;;;;;;5003909;28;21550;-76
2022/07/08 05:00:54;;;;;;;;;;;14.70;99.90;;;;;;5029367;28;19924;-76
2022/07/08 05:03:20;;;;;;;;;;;14.80;99.90;;;;;;5002949;28;19924;-77
2022/07/08 05:05:46;;;;;;;;;;;14.80;99.90;;;;;;5005886;28;19917;-76
2022/07/08 05:08:13;;;;;;;;;;;14.80;99.90;;;;;;5020663;28;19939;-76
2022/07/08 05:10:39;;;;;;;;;;;14.80;99.90;;;;;;4999380;28;20310;-76
2022/07/08 05:13:07;;;;;;;;;;;14.80;99.90;;;;;;5019593;28;19909;-76
2022/07/08 05:15:33;;;;;;;;;;;14.80;99.90;;;;;;5005961;28;19917;-76
2022/07/08 05:17:59;;;;;;;;;;;14.70;99.90;;;;;;5022585;28;20330;-76
2022/07/08 05:20:25;;;;;;;;;;;14.70;99.90;;;;;;4987561;28;20941;-76
2022/07/08 05:22:52;;;;;;;;;;;14.80;99.90;;;;;;5021243;28;19919;-76
2022/07/08 05:25:18;;;;;;;;;;;14.90;99.90;;;;;;5002661;28;19917;-76
2022/07/08 05:27:44;;;;;;;;;;;15.00;99.90;;;;;;5021995;28;19917;-76
2022/07/08 05:30:11;;;;;;;;;;;15.30;99.90;;;;;;5015123;28;19912;-76
2022/07/08 05:32:38;;;;;;;;;;;15.50;99.90;;;;;;5017250;28;19921;-76
2022/07/08 05:35:05;;;;;;;;;;;15.80;99.90;;;;;;4988012;28;20260;-77
2022/07/08 05:37:31;;;;;;;;;;;16.00;99.90;;;;;;4991769;28;19921;-78
2022/07/08 05:39:58;;;;;;;;;;;16.20;99.90;;;;;;5016142;28;19936;-77
2022/07/08 05:42:24;;;;;;;;;;;16.40;99.90;;;;;;5017640;28;20284;-76
2022/07/08 05:44:50;;;;;;;;;;;16.60;99.90;;;;;;5020923;28;20236;-75
2022/07/08 05:47:16;;;;;;;;;;;16.70;99.90;;;;;;5017501;28;19905;-76
2022/07/08 05:49:43;;;;;;;;;;;16.80;99.90;;;;;;5001767;28;19940;-79
2022/07/08 05:52:09;;;;;;;;;;;16.90;99.90;;;;;;5018239;28;19921;-80
2022/07/08 05:54:35;;;;;;;;;;;17.00;99.90;;;;;;5020058;28;20619;-82
2022/07/08 05:57:02;;;;;;;;;;;16.90;99.90;;;;;;5019470;28;19917;-81
2022/07/08 05:59:29;;;;;;;;;;;16.90;99.90;;;;;;5014291;28;19917;-81
2022/07/08 06:01:55;;;;;;;;;;;16.80;99.90;;;;;;5012247;28;19920;-81
2022/07/08 06:04:21;;;;;;;;;;;16.70;99.90;;;;;;4996136;28;19924;-81
2022/07/08 06:06:48;;;;;;;;;;;16.70;99.90;;;;;;5014383;28;19923;-82
2022/07/08 06:09:14;;;;;;;;;;;16.90;99.90;;;;;;5013887;28;20788;-81
2022/07/08 06:11:40;;;;;;;;;;;17.20;99.90;;;;;;5012374;28;21264;-78
2022/07/08 06:14:06;;;;;;;;;;;17.60;99.90;;;;;;5014556;28;19928;-82
2022/07/08 06:16:32;;;;;;;;;;;17.80;99.90;;;;;;4998558;28;19920;-79
2022/07/08 06:18:59;;;;;;;;;;;17.90;99.90;;;;;;4981542;28;20937;-78
2022/07/08 06:21:25;;;;;;;;;;;18.00;99.90;;;;;;5008215;28;19921;-78
2022/07/08 06:23:51;;;;;;;;;;;18.20;99.90;;;;;;5015301;28;19921;-78
2022/07/08 06:26:17;;;;;;;;;;;18.40;99.90;;;;;;5013984;28;20372;-78
2022/07/08 06:28:43;;;;;;;;;;;18.60;99.90;;;;;;5014830;28;19913;-79
2022/07/08 06:31:10;;;;;;;;;;;18.90;99.90;;;;;;5010551;28;19919;-79
2022/07/08 06:33:36;;;;;;;;;;;19.00;99.90;;;;;;4997268;28;19927;-79
2022/07/08 06:36:03;;;;;;;;;;;19.20;99.90;;;;;;5016128;28;19924;-79
2022/07/08 06:38:29;;;;;;;;;;;19.20;99.90;;;;;;5019534;28;20267;-79
2022/07/08 06:40:55;;;;;;;;;;;19.30;99.90;;;;;;5016636;28;19935;-79
2022/07/08 06:43:22;;;;;;;;;;;19.40;99.90;;;;;;5008184;28;19916;-78
2022/07/08 06:45:50;;;;;;;;;;;19.50;99.90;;;;;;5002115;28;19919;-79
2022/07/08 06:48:16;;;;;;;;;;;19.50;99.90;;;;;;5036803;28;19920;-78
2022/07/08 06:50:42;;;;;;;;;;;19.50;99.90;;;;;;5015720;28;19923;-83
2022/07/08 06:53:08;;;;;;;;;;;19.50;99.90;;;;;;5024452;28;19928;-79
2022/07/08 06:55:35;;;;;;;;;;;19.60;99.90;;;;;;5026585;28;19913;-80
2022/07/08 06:58:02;;;;;;;;;;;19.60;99.90;;;;;;5027262;28;19923;-79
2022/07/08 07:00:28;;;;;;;;;;;19.60;99.90;;;;;;5007680;28;20004;-78
2022/07/08 07:02:55;;;;;;;;;;;19.60;99.90;;;;;;5026631;28;19924;-80
2022/07/08 07:05:21;;;;;;;;;;;19.60;99.90;;;;;;5022686;28;20450;-81
2022/07/08 07:07:47;;;;;;;;;;;19.50;99.90;;;;;;5023257;28;19916;-79
2022/07/08 07:10:14;;;;;;;;;;;19.50;99.90;;;;;;5022549;28;20368;-80
2022/07/08 07:12:40;;;;;;;;;;;19.60;99.90;;;;;;5022248;28;20023;-81
2022/07/08 07:15:07;;;;;;;;;;;19.70;99.90;;;;;;5007867;28;19913;-79
2022/07/08 07:17:33;;;;;;;;;;;19.80;99.90;;;;;;5037827;28;19916;-79
2022/07/08 07:19:59;;;;;;;;;;;19.90;99.90;;;;;;5019603;28;20324;-80
2022/07/08 07:22:25;;;;;;;;;;;20.00;99.90;;;;;;5006330;28;20016;-79
2022/07/08 07:24:51;;;;;;;;;;;20.10;99.90;;;;;;5025727;28;20287;-80
2022/07/08 07:27:18;;;;;;;;;;;20.20;99.90;;;;;;5026854;28;19920;-80
2022/07/08 07:29:44;;;;;;;;;;;20.00;99.90;;;;;;5007991;28;19917;-79
2022/07/08 07:32:10;;;;;;;;;;;19.90;99.90;;;;;;4994173;28;19917;-80
2022/07/08 07:34:36;;;;;;;;;;;20.10;99.90;;;;;;4995287;28;19916;-80
2022/07/08 07:37:03;;;;;;;;;;;20.20;99.90;;;;;;5026334;28;19908;-80
2022/07/08 07:39:29;;;;;;;;;;;20.20;99.90;;;;;;5023513;28;19916;-80
2022/07/08 07:41:55;;;;;;;;;;;20.20;99.90;;;;;;5022798;28;20345;-79
2022/07/08 07:44:21;;;;;;;;;;;20.30;99.90;;;;;;5025797;28;20348;-81
2022/07/08 07:46:47;;;;;;;;;;;20.40;99.80;;;;;;5026355;28;19924;-85
2022/07/08 07:49:14;;;;;;;;;;;20.50;99.70;;;;;;4975047;28;19924;-80
2022/07/08 07:51:40;;;;;;;;;;;20.60;99.60;;;;;;5005416;28;19935;-82
2022/07/08 07:54:06;;;;;;;;;;;20.70;99.40;;;;;;5006768;28;19931;-81
2022/07/08 07:56:33;;;;;;;;;;;20.80;99.40;;;;;;5022159;28;20304;-82
2022/07/08 07:58:59;;;;;;;;;;;20.80;99.20;;;;;;4992954;28;20346;-82
2022/07/08 08:01:25;;;;;;;;;;;20.70;98.80;;;;;;5019212;28;20528;-82
2022/07/08 08:03:51;;;;;;;;;;;20.60;98.90;;;;;;5026634;28;19932;-82
2022/07/08 08:06:18;;;;;;;;;;;20.60;99.00;;;;;;5023925;28;19916;-82
2022/07/08 08:08:45;;;;;;;;;;;20.70;98.80;;;;;;5021839;28;19951;-82
2022/07/08 08:11:11;;;;;;;;;;;20.70;98.80;;;;;;5018586;28;19920;-81
2022/07/08 08:13:37;;;;;;;;;;;20.70;98.60;;;;;;5023811;28;20418;-82
2022/07/08 08:16:03;;;;;;;;;;;20.80;98.50;;;;;;5018000;28;19932;-83
2022/07/08 08:18:29;;;;;;;;;;;20.90;98.60;;;;;;5007176;28;20386;-83
2022/07/08 08:20:56;;;;;;;;;;;20.90;98.20;;;;;;5005487;28;19920;-82
2022/07/08 08:23:22;;;;;;;;;;;21.10;98.10;;;;;;5024426;28;19912;-83
2022/07/08 08:25:48;;;;;;;;;;;21.50;98.00;;;;;;5019416;28;19916;-83
2022/07/08 08:28:15;;;;;;;;;;;21.70;97.80;;;;;;5014315;28;19923;-83
2022/07/08 08:30:41;;;;;;;;;;;22.00;97.50;;;;;;4996949;28;19920;-83
2022/07/08 08:33:07;;;;;;;;;;;22.20;97.30;;;;;;4980766;28;19931;-83
2022/07/08 08:35:33;;;;;;;;;;;22.30;97.00;;;;;;5018561;28;20395;-83
2022/07/08 08:37:59;;;;;;;;;;;22.50;96.80;;;;;;5006083;28;19920;-84
2022/07/08 08:40:27;;;;;;;;;;;22.50;96.60;;;;;;5016873;28;19917;-84
2022/07/08 08:42:53;;;;;;;;;;;22.60;96.50;;;;;;5017820;28;19916;-83
2022/07/08 08:45:19;;;;;;;;;;;22.60;96.10;;;;;;5018734;28;19923;-84
2022/07/08 08:47:47;;;;;;;;;;;22.70;95.70;;;;;;5016250;28;19924;-83
2022/07/08 08:53:00;;;;;;;;;;;23.00;95.60;;;;;;5021022;28;19924;-83
2022/07/08 08:55:27;;;;;;;;;;;23.10;95.40;;;;;;5016603;28;19911;-84
2022/07/08 08:57:57;;;;;;;;;;;23.20;95.40;;;;;;5018049;28;19916;-83
2022/07/08 09:00:25;;;;;;;;;;;23.20;95.00;;;;;;5012699;28;19931;-84
2022/07/08 09:02:54;;;;;;;;;;;23.20;94.80;;;;;;5033533;28;19912;-80
2022/07/08 09:05:21;;;;;;;;;;;23.30;94.80;;;;;;5013489;28;19924;-82
2022/07/08 09:07:47;;;;;;;;;;;23.30;94.60;;;;;;5015795;28;19931;-81
2022/07/08 09:10:16;;;;;;;;;;;23.40;94.60;;;;;;5012193;28;20272;-81
2022/07/08 09:13:01;;;;;;;;;;;23.50;94.60;;;;;;5017603;28;20404;-82
2022/07/08 09:15:40;;;;;;;;;;;23.70;94.30;;;;;;5015260;28;19917;-81
2022/07/08 09:18:10;;;;;;;;;;;24.00;94.10;;;;;;5012790;28;19912;-82
2022/07/08 09:20:41;;;;;;;;;;;24.20;93.80;;;;;;5028811;28;19917;-82
2022/07/08 09:23:16;;;;;;;;;;;24.60;93.80;;;;;;5018538;28;19912;-83
2022/07/08 09:25:44;;;;;;;;;;;24.90;93.30;;;;;;5017121;28;19924;-82
2022/07/08 09:28:10;;;;;;;;;;;25.10;93.00;;;;;;5017630;28;19935;-82
2022/07/08 09:30:39;;;;;;;;;;;25.40;92.80;;;;;;5014035;28;19920;-82
2022/07/08 09:33:05;;;;;;;;;;;25.70;92.30;;;;;;5013797;28;19932;-82
2022/07/08 09:35:36;;;;;;;;;;;25.90;91.80;;;;;;5017562;28;19931;-81
2022/07/08 09:38:03;;;;;;;;;;;26.20;91.50;;;;;;5015547;28;19916;-81
2022/07/08 09:40:30;;;;;;;;;;;26.30;90.40;;;;;;5003277;28;19920;-81
2022/07/08 09:42:56;;;;;;;;;;;26.30;90.20;;;;;;5020956;28;19912;-83
2022/07/08 09:45:29;;;;;;;;;;;26.40;90.00;;;;;;4996975;28;19921;-84
2022/07/08 09:48:06;;;;;;;;;;;26.30;89.70;;;;;;4997450;28;19923;-83
2022/07/08 09:50:38;;;;;;;;;;;26.30;88.80;;;;;;5030206;28;19913;-83
2022/07/08 09:53:18;;;;;;;;;;;26.10;87.60;;;;;;5013723;28;19924;-83
2022/07/08 09:55:47;;;;;;;;;;;25.90;87.90;;;;;;5015350;28;19915;-84
2022/07/08 09:58:14;;;;;;;;;;;25.70;88.20;;;;;;5016430;28;19927;-81
2022/07/08 10:00:41;;;;;;;;;;;25.70;88.90;;;;;;5011544;28;20299;-81
2022/07/08 10:03:07;;;;;;;;;;;25.60;88.70;;;;;;5031473;28;20840;-81
2022/07/08 10:05:33;;;;;;;;;;;25.60;88.50;;;;;;5016413;28;19927;-81
2022/07/08 10:07:59;;;;;;;;;;;25.60;88.50;;;;;;5014141;28;20287;-83
2022/07/08 10:10:26;;;;;;;;;;;25.60;88.60;;;;;;5013198;28;19913;-83
2022/07/08 10:12:56;;;;;;;;;;;25.80;87.40;;;;;;4992996;28;19917;-83
2022/07/08 10:15:23;;;;;;;;;;;26.10;87.60;;;;;;5019347;28;20310;-84
2022/07/08 10:17:49;;;;;;;;;;;26.70;87.30;;;;;;5019479;28;21004;-84
2022/07/08 10:20:17;;;;;;;;;;;27.20;86.10;;;;;;5013411;28;20376;-84
2022/07/08 10:22:46;;;;;;;;;;;27.60;83.70;;;;;;5019631;28;19921;-84
2022/07/08 10:25:12;;;;;;;;;;;27.60;82.60;;;;;;5003315;28;19927;-84
2022/07/08 10:27:39;;;;;;;;;;;27.70;82.40;;;;;;5002845;28;20295;-85
2022/07/08 10:30:12;;;;;;;;;;;27.60;81.30;;;;;;5014985;28;19916;-82
2022/07/08 10:32:38;;;;;;;;;;;27.30;81.50;;;;;;4999346;28;19917;-82
2022/07/08 10:35:09;;;;;;;;;;;27.30;81.60;;;;;;5015532;28;19929;-83
2022/07/08 10:37:55;;;;;;;;;;;27.20;81.00;;;;;;5018506;28;20367;-84
2022/07/08 10:40:40;;;;;;;;;;;27.10;81.00;;;;;;5015315;28;19917;-84
2022/07/08 10:43:23;;;;;;;;;;;27.10;81.40;;;;;;5020615;28;19921;-82
2022/07/08 10:46:08;;;;;;;;;;;27.30;81.50;;;;;;5021836;28;19908;-83
2022/07/08 10:48:40;;;;;;;;;;;27.60;80.40;;;;;;5018866;28;20395;-83
2022/07/08 10:51:28;;;;;;;;;;;27.70;79.60;;;;;;5017831;28;19923;-84
2022/07/08 10:54:01;;;;;;;;;;;27.60;79.80;;;;;;4993807;28;19923;-82
2022/07/08 10:56:49;;;;;;;;;;;27.50;80.20;;;;;;5027501;28;19915;-83
2022/07/08 10:59:22;;;;;;;;;;;27.50;80.20;;;;;;5024662;28;19924;-87
2022/07/08 11:01:52;;;;;;;;;;;27.50;79.40;;;;;;5022587;28;19929;-83
2022/07/08 11:04:20;;;;;;;;;;;27.30;79.00;;;;;;4994877;28;19916;-88
2022/07/08 11:06:46;;;;;;;;;;;27.30;79.00;;;;;;5008714;28;20462;-83
2022/07/08 11:09:15;;;;;;;;;;;27.10;79.30;;;;;;5018757;28;19951;-83
2022/07/08 11:11:43;;;;;;;;;;;27.00;79.30;;;;;;4999764;28;19909;-84
2022/07/08 11:14:10;;;;;;;;;;;27.00;79.40;;;;;;5019481;28;20026;-83
2022/07/08 11:16:36;;;;;;;;;;;27.00;79.30;;;;;;5019699;28;19927;-82
2022/07/08 11:19:05;;;;;;;;;;;27.00;78.80;;;;;;5018512;28;19927;-81
2022/07/08 11:21:32;;;;;;;;;;;27.00;79.30;;;;;;5013541;28;19918;-81
2022/07/08 11:23:58;;;;;;;;;;;27.10;79.20;;;;;;5016649;28;20368;-81
2022/07/08 11:26:24;;;;;;;;;;;27.20;78.40;;;;;;5018652;28;20276;-80
2022/07/08 11:28:50;;;;;;;;;;;27.20;78.20;;;;;;5019464;28;19916;-82
2022/07/08 11:31:27;;;;;;;;;;;27.30;78.00;;;;;;4998014;28;19928;-82
2022/07/08 11:33:53;;;;;;;;;;;27.50;78.20;;;;;;5017063;28;20364;-82
2022/07/08 11:36:20;;;;;;;;;;;27.70;77.90;;;;;;5020690;28;19921;-82
2022/07/08 11:38:47;;;;;;;;;;;27.90;78.00;;;;;;5023628;28;19928;-82
2022/07/08 11:41:13;;;;;;;;;;;28.70;77.80;;;;;;5034861;28;20391;-81
2022/07/08 11:43:43;;;;;;;;;;;29.30;76.10;;;;;;5022275;28;19916;-81
2022/07/08 11:46:16;;;;;;;;;;;29.70;74.20;;;;;;5004629;28;19917;-81
2022/07/08 11:48:42;;;;;;;;;;;30.00;73.10;;;;;;5023922;28;19915;-82
2022/07/08 11:51:08;;;;;;;;;;;30.00;72.00;;;;;;5018980;28;19917;-81
2022/07/08 11:53:34;;;;;;;;;;;29.60;72.40;;;;;;5020892;28;19905;-82
2022/07/08 11:56:01;;;;;;;;;;;29.40;73.10;;;;;;5024998;28;19916;-81
2022/07/08 11:58:27;;;;;;;;;;;29.20;73.10;;;;;;5023691;28;19924;-81
2022/07/08 12:00:54;;;;;;;;;;;29.00;73.50;;;;;;5003288;28;19916;-82
2022/07/08 12:03:20;;;;;;;;;;;29.20;73.60;;;;;;5004118;28;19933;-83
2022/07/08 12:05:47;;;;;;;;;;;29.30;73.20;;;;;;5020840;28;20244;-80
2022/07/08 12:08:13;;;;;;;;;;;29.30;73.30;;;;;;5021431;28;20363;-80
2022/07/08 12:10:40;;;;;;;;;;;29.60;73.40;;;;;;5017757;28;19923;-80
2022/07/08 12:13:06;;;;;;;;;;;29.80;73.10;;;;;;5017713;28;20391;-80
2022/07/08 12:15:33;;;;;;;;;;;29.70;72.60;;;;;;5016196;28;19917;-81
2022/07/08 12:18:03;;;;;;;;;;;29.50;72.90;;;;;;5015136;28;19912;-81
2022/07/08 12:20:34;;;;;;;;;;;29.20;73.00;;;;;;5014026;28;19916;-80
2022/07/08 12:23:00;;;;;;;;;;;28.90;73.40;;;;;;5015881;28;19921;-83
2022/07/08 12:25:26;;;;;;;;;;;28.80;73.70;;;;;;5016203;28;19917;-81
2022/07/08 12:27:57;;;;;;;;;;;28.90;73.80;;;;;;5017008;28;19916;-84
2022/07/08 12:30:28;;;;;;;;;;;29.20;73.90;;;;;;5012939;28;19917;-83
2022/07/08 12:32:58;;;;;;;;;;;29.10;73.50;;;;;;5018295;28;19927;-82
2022/07/08 12:35:31;;;;;;;;;;;28.80;73.50;;;;;;5015389;28;19916;-81
2022/07/08 12:38:07;;;;;;;;;;;28.30;74.10;;;;;;5034766;28;19917;-81
2022/07/08 12:40:41;;;;;;;;;;;28.00;74.90;;;;;;5007901;28;19923;-81
2022/07/08 12:43:08;;;;;;;;;;;27.70;75.60;;;;;;4993262;28;20304;-81
2022/07/08 12:45:34;;;;;;;;;;;27.50;76.00;;;;;;5010621;28;19916;-81
2022/07/08 12:48:02;;;;;;;;;;;27.30;76.40;;;;;;5009010;28;20496;-82
2022/07/08 12:50:28;;;;;;;;;;;27.20;76.70;;;;;;4994312;28;20026;-84
2022/07/08 12:52:55;;;;;;;;;;;27.20;77.00;;;;;;5008752;28;19921;-85
2022/07/08 12:55:21;;;;;;;;;;;27.10;77.50;;;;;;5007679;28;19912;-84
2022/07/08 12:57:48;;;;;;;;;;;27.00;78.00;;;;;;5010213;28;20023;-85
2022/07/08 13:00:14;;;;;;;;;;;26.90;77.80;;;;;;5009897;28;19919;-85
2022/07/08 13:02:42;;;;;;;;;;;26.80;78.00;;;;;;5007785;28;19928;-83
2022/07/08 13:05:09;;;;;;;;;;;27.10;78.40;;;;;;5006084;28;20514;-75
2022/07/08 13:07:35;;;;;;;;;;;27.50;78.10;;;;;;5007204;28;19920;-77
2022/07/08 13:10:01;;;;;;;;;;;27.80;77.50;;;;;;4987739;28;19924;-76
2022/07/08 13:12:27;;;;;;;;;;;27.90;77.30;;;;;;4972719;28;19923;-76
2022/07/08 13:14:54;;;;;;;;;;;27.80;77.50;;;;;;4989803;28;19917;-76
2022/07/08 13:17:20;;;;;;;;;;;27.60;77.80;;;;;;5005589;28;19924;-76
2022/07/08 13:19:46;;;;;;;;;;;27.40;78.00;;;;;;5009400;28;20320;-75
2022/07/08 13:22:12;;;;;;;;;;;27.50;78.10;;;;;;5009297;28;19916;-76
2022/07/08 13:24:38;;;;;;;;;;;27.60;77.80;;;;;;5007038;28;19921;-76
2022/07/08 13:27:05;;;;;;;;;;;27.50;77.90;;;;;;5007265;28;19909;-75
2022/07/08 13:29:31;;;;;;;;;;;27.50;78.30;;;;;;5003629;28;20462;-77
2022/07/08 13:31:58;;;;;;;;;;;27.20;78.40;;;;;;5003977;28;19912;-76
2022/07/08 13:34:24;;;;;;;;;;;27.10;78.70;;;;;;5006956;28;19924;-76
2022/07/08 13:36:50;;;;;;;;;;;27.20;78.50;;;;;;5005537;28;20391;-76
2022/07/08 13:39:16;;;;;;;;;;;27.80;77.70;;;;;;5006191;28;19995;-76
2022/07/08 13:41:43;;;;;;;;;;;28.70;76.90;;;;;;4972729;28;21192;-76
2022/07/08 13:44:09;;;;;;;;;;;30.00;74.30;;;;;;5005709;28;19921;-76
2022/07/08 13:46:35;;;;;;;;;;;31.70;71.00;;;;;;5007223;28;20471;-76
2022/07/08 13:49:02;;;;;;;;;;;33.30;68.50;;;;;;4994197;28;19925;-75
2022/07/08 13:51:28;;;;;;;;;;;34.10;64.50;;;;;;5023942;28;19912;-75
2022/07/08 13:53:55;;;;;;;;;;;34.50;62.70;;;;;;5009436;28;19912;-75
2022/07/08 13:56:21;;;;;;;;;;;35.30;60.60;;;;;;4989707;28;19916;-75
2022/07/08 13:58:51;;;;;;;;;;;35.90;59.40;;;;;;5005936;28;19912;-76
2022/07/08 14:01:18;;;;;;;;;;;36.30;57.80;;;;;;5005498;28;19913;-76
2022/07/08 14:03:44;;;;;;;;;;;35.80;56.90;;;;;;5008232;28;19924;-77
2022/07/08 14:06:11;;;;;;;;;;;35.70;56.60;;;;;;4993708;28;20356;-76
2022/07/08 14:08:37;;;;;;;;;;;34.80;56.60;;;;;;5009457;28;19935;-75
2022/07/08 14:11:03;;;;;;;;;;;33.70;57.20;;;;;;5010246;28;19924;-84
2022/07/08 14:13:30;;;;;;;;;;;32.70;58.40;;;;;;5014776;28;19916;-81
2022/07/08 14:15:56;;;;;;;;;;;32.70;58.60;;;;;;5014597;28;19940;-80
2022/07/08 14:18:22;;;;;;;;;;;33.80;56.10;;;;;;4985203;28;20291;-81
2022/07/08 14:20:48;;;;;;;;;;;33.90;55.70;;;;;;5009841;28;19921;-82
2022/07/08 14:23:14;;;;;;;;;;;34.00;55.50;;;;;;4991482;28;19925;-82